sensor_id;sensor_type;location;lat;lon;timestamp;P1;durP1;ratioP1;P2;durP2;ratioP2
80157;SDS011;74139;59.092;37.932;2024-01-06T00:01:15;88.72;;;46.10;;
80157;SDS011;74139;59.092;37.932;2024-01-06T00:03:41;87.55;;;45.17;;
80157;SDS011;74139;59.092;37.932;2024-01-06T00:06:07;88.03;;;46.15;;
80157;SDS011;74139;59.092;37.932;2024-01-06T00:08:33;87.68;;;45.17;;
80157;SDS011;74139;59.092;37.932;2024-01-06T00:10:59;87.43;;;45.42;;
80157;SDS011;74139;59.092;37.932;2024-01-06T00:13:28;89.65;;;45.67;;
80157;SDS011;74139;59.092;37.932;2024-01-06T00:15:55;88.65;;;45.88;;
80157;SDS011;74139;59.092;37.932;2024-01-06T00:18:21;86.90;;;45.10;;
80157;SDS011;74139;59.092;37.932;2024-01-06T00:20:47;87.47;;;45.83;;
80157;SDS011;74139;59.092;37.932;2024-01-06T00:23:13;86.90;;;45.22;;
80157;SDS011;74139;59.092;37.932;2024-01-06T00:25:39;87.45;;;45.72;;
80157;SDS011;74139;59.092;37.932;2024-01-06T00:28:05;89.20;;;46.88;;
80157;SDS011;74139;59.092;37.932;2024-01-06T00:30:31;88.65;;;46.33;;
80157;SDS011;74139;59.092;37.932;2024-01-06T00:32:57;88.63;;;45.60;;
80157;SDS011;74139;59.092;37.932;2024-01-06T00:35:23;89.43;;;46.03;;
80157;SDS011;74139;59.092;37.932;2024-01-06T00:37:49;89.03;;;46.75;;
80157;SDS011;74139;59.092;37.932;2024-01-06T00:40:15;88.30;;;45.65;;
80157;SDS011;74139;59.092;37.932;2024-01-06T00:42:41;88.53;;;46.28;;
80157;SDS011;74139;59.092;37.932;2024-01-06T00:45:07;89.75;;;46.13;;
80157;SDS011;74139;59.092;37.932;2024-01-06T00:47:33;89.13;;;46.80;;
80157;SDS011;74139;59.092;37.932;2024-01-06T00:49:59;90.60;;;46.90;;
80157;SDS011;74139;59.092;37.932;2024-01-06T00:52:25;88.28;;;46.35;;
80157;SDS011;74139;59.092;37.932;2024-01-06T00:54:51;90.75;;;46.72;;
80157;SDS011;74139;59.092;37.932;2024-01-06T00:57:17;87.82;;;46.53;;
80157;SDS011;74139;59.092;37.932;2024-01-06T00:59:43;82.53;;;44.25;;
80157;SDS011;74139;59.092;37.932;2024-01-06T01:02:09;72.72;;;41.50;;
80157;SDS011;74139;59.092;37.932;2024-01-06T01:04:35;64.72;;;40.20;;
80157;SDS011;74139;59.092;37.932;2024-01-06T01:07:01;46.28;;;33.97;;
80157;SDS011;74139;59.092;37.932;2024-01-06T01:09:26;27.60;;;24.90;;
80157;SDS011;74139;59.092;37.932;2024-01-06T01:11:55;12.07;;;11.05;;
80157;SDS011;74139;59.092;37.932;2024-01-06T01:14:20;4.30;;;3.55;;
80157;SDS011;74139;59.092;37.932;2024-01-06T01:16:46;1.00;;;0.88;;
80157;SDS011;74139;59.092;37.932;2024-01-06T01:19:13;1.33;;;0.77;;
80157;SDS011;74139;59.092;37.932;2024-01-06T01:21:39;2.05;;;0.68;;
80157;SDS011;74139;59.092;37.932;2024-01-06T01:24:05;2.88;;;1.25;;
80157;SDS011;74139;59.092;37.932;2024-01-06T01:26:31;3.00;;;0.98;;
80157;SDS011;74139;59.092;37.932;2024-01-06T01:28:57;0.70;;;0.50;;
80157;SDS011;74139;59.092;37.932;2024-01-06T01:31:23;2.65;;;1.25;;
80157;SDS011;74139;59.092;37.932;2024-01-06T01:33:49;2.10;;;0.77;;
80157;SDS011;74139;59.092;37.932;2024-01-06T01:36:15;3.22;;;1.00;;
80157;SDS011;74139;59.092;37.932;2024-01-06T01:38:40;4.07;;;1.15;;
80157;SDS011;74139;59.092;37.932;2024-01-06T01:41:06;3.20;;;0.88;;
80157;SDS011;74139;59.092;37.932;2024-01-06T01:43:32;3.17;;;1.05;;
80157;SDS011;74139;59.092;37.932;2024-01-06T01:45:58;1.92;;;0.80;;
80157;SDS011;74139;59.092;37.932;2024-01-06T01:48:24;3.38;;;1.05;;
80157;SDS011;74139;59.092;37.932;2024-01-06T01:50:51;2.80;;;1.08;;
80157;SDS011;74139;59.092;37.932;2024-01-06T01:55:43;1.52;;;0.80;;
80157;SDS011;74139;59.092;37.932;2024-01-06T01:58:09;2.40;;;1.02;;
80157;SDS011;74139;59.092;37.932;2024-01-06T02:00:36;2.40;;;0.93;;
80157;SDS011;74139;59.092;37.932;2024-01-06T02:03:02;2.67;;;1.00;;
80157;SDS011;74139;59.092;37.932;2024-01-06T02:05:28;4.85;;;1.35;;
80157;SDS011;74139;59.092;37.932;2024-01-06T02:07:54;3.45;;;1.20;;
80157;SDS011;74139;59.092;37.932;2024-01-06T02:10:20;2.53;;;1.10;;
80157;SDS011;74139;59.092;37.932;2024-01-06T02:12:46;3.97;;;1.33;;
80157;SDS011;74139;59.092;37.932;2024-01-06T02:15:12;2.83;;;1.20;;
80157;SDS011;74139;59.092;37.932;2024-01-06T02:17:38;1.73;;;1.00;;
80157;SDS011;74139;59.092;37.932;2024-01-06T02:20:05;2.75;;;1.00;;
80157;SDS011;74139;59.092;37.932;2024-01-06T02:22:32;1.50;;;0.80;;
80157;SDS011;74139;59.092;37.932;2024-01-06T02:24:58;2.47;;;1.10;;
80157;SDS011;74139;59.092;37.932;2024-01-06T02:27:24;1.98;;;1.00;;
80157;SDS011;74139;59.092;37.932;2024-01-06T02:29:50;3.10;;;1.05;;
80157;SDS011;74139;59.092;37.932;2024-01-06T02:32:16;3.15;;;1.00;;
80157;SDS011;74139;59.092;37.932;2024-01-06T02:34:42;2.50;;;1.20;;
80157;SDS011;74139;59.092;37.932;2024-01-06T02:37:08;2.03;;;1.00;;
80157;SDS011;74139;59.092;37.932;2024-01-06T02:39:33;3.25;;;1.08;;
80157;SDS011;74139;59.092;37.932;2024-01-06T02:41:59;3.10;;;1.17;;
80157;SDS011;74139;59.092;37.932;2024-01-06T02:44:25;3.40;;;1.00;;
80157;SDS011;74139;59.092;37.932;2024-01-06T02:46:51;3.35;;;1.08;;
80157;SDS011;74139;59.092;37.932;2024-01-06T02:49:17;2.20;;;1.10;;
80157;SDS011;74139;59.092;37.932;2024-01-06T02:51:43;2.60;;;1.02;;
80157;SDS011;74139;59.092;37.932;2024-01-06T02:54:09;2.55;;;1.20;;
80157;SDS011;74139;59.092;37.932;2024-01-06T02:56:35;2.90;;;1.33;;
80157;SDS011;74139;59.092;37.932;2024-01-06T02:59:01;2.50;;;0.90;;
80157;SDS011;74139;59.092;37.932;2024-01-06T03:01:27;3.28;;;1.40;;
80157;SDS011;74139;59.092;37.932;2024-01-06T03:03:52;2.38;;;1.30;;
80157;SDS011;74139;59.092;37.932;2024-01-06T03:06:18;2.50;;;1.10;;
80157;SDS011;74139;59.092;37.932;2024-01-06T03:08:44;3.35;;;1.05;;
80157;SDS011;74139;59.092;37.932;2024-01-06T03:11:10;3.08;;;1.13;;
80157;SDS011;74139;59.092;37.932;2024-01-06T03:13:36;3.03;;;1.00;;
80157;SDS011;74139;59.092;37.932;2024-01-06T03:16:03;2.78;;;1.05;;
80157;SDS011;74139;59.092;37.932;2024-01-06T03:18:30;4.30;;;1.40;;
80157;SDS011;74139;59.092;37.932;2024-01-06T03:20:56;3.30;;;1.38;;
80157;SDS011;74139;59.092;37.932;2024-01-06T03:23:21;3.03;;;1.08;;
80157;SDS011;74139;59.092;37.932;2024-01-06T03:25:47;3.17;;;1.30;;
80157;SDS011;74139;59.092;37.932;2024-01-06T03:28:13;4.40;;;1.30;;
80157;SDS011;74139;59.092;37.932;2024-01-06T03:30:39;3.38;;;1.27;;
80157;SDS011;74139;59.092;37.932;2024-01-06T03:33:06;2.53;;;1.20;;
80157;SDS011;74139;59.092;37.932;2024-01-06T03:35:32;2.53;;;1.25;;
80157;SDS011;74139;59.092;37.932;2024-01-06T03:37:58;4.22;;;1.35;;
80157;SDS011;74139;59.092;37.932;2024-01-06T03:40:24;3.22;;;1.33;;
80157;SDS011;74139;59.092;37.932;2024-01-06T03:42:50;1.73;;;0.95;;
80157;SDS011;74139;59.092;37.932;2024-01-06T03:45:16;2.75;;;1.25;;
80157;SDS011;74139;59.092;37.932;2024-01-06T03:47:42;3.75;;;1.50;;
80157;SDS011;74139;59.092;37.932;2024-01-06T03:50:08;2.33;;;1.25;;
80157;SDS011;74139;59.092;37.932;2024-01-06T03:52:35;2.20;;;1.02;;
80157;SDS011;74139;59.092;37.932;2024-01-06T03:55:01;3.50;;;1.45;;
80157;SDS011;74139;59.092;37.932;2024-01-06T03:57:27;2.35;;;1.42;;
80157;SDS011;74139;59.092;37.932;2024-01-06T03:59:53;3.33;;;1.30;;
80157;SDS011;74139;59.092;37.932;2024-01-06T04:02:19;3.22;;;1.27;;
80157;SDS011;74139;59.092;37.932;2024-01-06T04:04:45;3.95;;;1.65;;
80157;SDS011;74139;59.092;37.932;2024-01-06T04:07:11;4.55;;;1.50;;
80157;SDS011;74139;59.092;37.932;2024-01-06T04:09:37;2.97;;;1.33;;
80157;SDS011;74139;59.092;37.932;2024-01-06T04:12:03;3.08;;;1.38;;
80157;SDS011;74139;59.092;37.932;2024-01-06T04:14:29;5.20;;;1.50;;
80157;SDS011;74139;59.092;37.932;2024-01-06T04:16:55;3.65;;;1.67;;
80157;SDS011;74139;59.092;37.932;2024-01-06T04:19:22;2.80;;;1.27;;
80157;SDS011;74139;59.092;37.932;2024-01-06T04:21:48;2.42;;;1.13;;
80157;SDS011;74139;59.092;37.932;2024-01-06T04:24:14;3.47;;;1.30;;
80157;SDS011;74139;59.092;37.932;2024-01-06T04:26:40;3.72;;;1.58;;
80157;SDS011;74139;59.092;37.932;2024-01-06T04:29:06;2.10;;;1.15;;
80157;SDS011;74139;59.092;37.932;2024-01-06T04:31:32;3.28;;;1.35;;
80157;SDS011;74139;59.092;37.932;2024-01-06T04:33:58;3.25;;;1.30;;
80157;SDS011;74139;59.092;37.932;2024-01-06T04:36:24;2.08;;;1.15;;
80157;SDS011;74139;59.092;37.932;2024-01-06T04:38:50;2.25;;;1.05;;
80157;SDS011;74139;59.092;37.932;2024-01-06T04:41:17;2.25;;;1.20;;
80157;SDS011;74139;59.092;37.932;2024-01-06T04:43:43;3.22;;;1.30;;
80157;SDS011;74139;59.092;37.932;2024-01-06T04:46:09;2.78;;;1.42;;
80157;SDS011;74139;59.092;37.932;2024-01-06T04:48:35;4.00;;;1.58;;
80157;SDS011;74139;59.092;37.932;2024-01-06T04:51:01;3.33;;;1.52;;
80157;SDS011;74139;59.092;37.932;2024-01-06T04:53:29;2.35;;;1.20;;
80157;SDS011;74139;59.092;37.932;2024-01-06T04:55:55;2.90;;;1.38;;
80157;SDS011;74139;59.092;37.932;2024-01-06T04:58:21;3.40;;;1.35;;
80157;SDS011;74139;59.092;37.932;2024-01-06T05:00:47;3.95;;;1.35;;
80157;SDS011;74139;59.092;37.932;2024-01-06T05:03:13;3.75;;;1.40;;
80157;SDS011;74139;59.092;37.932;2024-01-06T05:05:39;4.28;;;1.75;;
80157;SDS011;74139;59.092;37.932;2024-01-06T05:08:05;4.30;;;1.67;;
80157;SDS011;74139;59.092;37.932;2024-01-06T05:10:31;3.75;;;1.40;;
80157;SDS011;74139;59.092;37.932;2024-01-06T05:12:57;5.05;;;1.70;;
80157;SDS011;74139;59.092;37.932;2024-01-06T05:15:23;3.95;;;1.52;;
80157;SDS011;74139;59.092;37.932;2024-01-06T05:17:49;3.17;;;1.40;;
80157;SDS011;74139;59.092;37.932;2024-01-06T05:20:16;3.08;;;1.50;;
80157;SDS011;74139;59.092;37.932;2024-01-06T05:22:42;4.78;;;1.83;;
80157;SDS011;74139;59.092;37.932;2024-01-06T05:25:08;4.60;;;1.75;;
80157;SDS011;74139;59.092;37.932;2024-01-06T05:27:35;2.38;;;1.20;;
80157;SDS011;74139;59.092;37.932;2024-01-06T05:30:01;3.65;;;1.77;;
80157;SDS011;74139;59.092;37.932;2024-01-06T05:32:27;4.05;;;1.67;;
80157;SDS011;74139;59.092;37.932;2024-01-06T05:34:53;4.10;;;1.70;;
80157;SDS011;74139;59.092;37.932;2024-01-06T05:37:19;3.05;;;1.40;;
80157;SDS011;74139;59.092;37.932;2024-01-06T05:39:45;3.55;;;1.70;;
80157;SDS011;74139;59.092;37.932;2024-01-06T05:42:11;4.65;;;1.90;;
80157;SDS011;74139;59.092;37.932;2024-01-06T05:44:42;4.60;;;1.60;;
80157;SDS011;74139;59.092;37.932;2024-01-06T05:47:08;5.97;;;1.65;;
80157;SDS011;74139;59.092;37.932;2024-01-06T05:49:34;3.03;;;1.50;;
80157;SDS011;74139;59.092;37.932;2024-01-06T05:52:00;4.00;;;1.58;;
80157;SDS011;74139;59.092;37.932;2024-01-06T05:54:26;4.43;;;1.60;;
80157;SDS011;74139;59.092;37.932;2024-01-06T05:56:52;4.55;;;1.77;;
80157;SDS011;74139;59.092;37.932;2024-01-06T05:59:18;3.85;;;1.52;;
80157;SDS011;74139;59.092;37.932;2024-01-06T06:01:44;4.00;;;1.45;;
80157;SDS011;74139;59.092;37.932;2024-01-06T06:04:11;4.80;;;1.52;;
80157;SDS011;74139;59.092;37.932;2024-01-06T06:06:37;3.83;;;1.70;;
80157;SDS011;74139;59.092;37.932;2024-01-06T06:09:03;4.35;;;1.75;;
80157;SDS011;74139;59.092;37.932;2024-01-06T06:11:35;3.30;;;1.67;;
80157;SDS011;74139;59.092;37.932;2024-01-06T06:14:01;5.00;;;1.83;;
80157;SDS011;74139;59.092;37.932;2024-01-06T06:16:30;4.93;;;1.70;;
80157;SDS011;74139;59.092;37.932;2024-01-06T06:18:56;3.65;;;1.50;;
80157;SDS011;74139;59.092;37.932;2024-01-06T06:21:22;4.22;;;1.63;;
80157;SDS011;74139;59.092;37.932;2024-01-06T06:23:48;4.13;;;1.73;;
80157;SDS011;74139;59.092;37.932;2024-01-06T06:26:14;3.92;;;1.90;;
80157;SDS011;74139;59.092;37.932;2024-01-06T06:28:40;3.78;;;1.50;;
80157;SDS011;74139;59.092;37.932;2024-01-06T06:31:06;3.65;;;1.58;;
80157;SDS011;74139;59.092;37.932;2024-01-06T06:33:32;3.25;;;1.33;;
80157;SDS011;74139;59.092;37.932;2024-01-06T06:36:01;4.68;;;2.20;;
80157;SDS011;74139;59.092;37.932;2024-01-06T06:38:27;4.25;;;1.67;;
80157;SDS011;74139;59.092;37.932;2024-01-06T06:40:53;4.07;;;1.85;;
80157;SDS011;74139;59.092;37.932;2024-01-06T06:43:19;3.78;;;1.55;;
80157;SDS011;74139;59.092;37.932;2024-01-06T06:45:45;4.60;;;1.58;;
80157;SDS011;74139;59.092;37.932;2024-01-06T06:48:11;4.82;;;1.80;;
80157;SDS011;74139;59.092;37.932;2024-01-06T06:50:37;4.10;;;1.38;;
80157;SDS011;74139;59.092;37.932;2024-01-06T06:53:03;3.90;;;1.60;;
80157;SDS011;74139;59.092;37.932;2024-01-06T06:55:30;4.25;;;1.48;;
80157;SDS011;74139;59.092;37.932;2024-01-06T06:57:56;3.28;;;1.60;;
80157;SDS011;74139;59.092;37.932;2024-01-06T07:00:22;2.85;;;1.42;;
80157;SDS011;74139;59.092;37.932;2024-01-06T07:02:48;4.50;;;1.80;;
80157;SDS011;74139;59.092;37.932;2024-01-06T07:05:14;4.82;;;1.75;;
80157;SDS011;74139;59.092;37.932;2024-01-06T07:07:40;3.30;;;1.40;;
80157;SDS011;74139;59.092;37.932;2024-01-06T07:10:07;4.47;;;1.77;;
80157;SDS011;74139;59.092;37.932;2024-01-06T07:12:33;4.78;;;1.75;;
80157;SDS011;74139;59.092;37.932;2024-01-06T07:14:59;3.95;;;2.08;;
80157;SDS011;74139;59.092;37.932;2024-01-06T07:17:25;3.38;;;1.80;;
80157;SDS011;74139;59.092;37.932;2024-01-06T07:19:51;4.68;;;1.90;;
80157;SDS011;74139;59.092;37.932;2024-01-06T07:22:17;3.95;;;1.67;;
80157;SDS011;74139;59.092;37.932;2024-01-06T07:27:10;3.72;;;1.35;;
80157;SDS011;74139;59.092;37.932;2024-01-06T07:29:36;6.43;;;1.80;;
80157;SDS011;74139;59.092;37.932;2024-01-06T07:32:03;4.20;;;1.75;;
80157;SDS011;74139;59.092;37.932;2024-01-06T07:34:29;4.32;;;1.85;;
80157;SDS011;74139;59.092;37.932;2024-01-06T07:36:55;4.00;;;1.83;;
80157;SDS011;74139;59.092;37.932;2024-01-06T07:39:21;3.88;;;1.77;;
80157;SDS011;74139;59.092;37.932;2024-01-06T07:41:47;4.90;;;1.80;;
80157;SDS011;74139;59.092;37.932;2024-01-06T07:44:13;4.45;;;1.80;;
80157;SDS011;74139;59.092;37.932;2024-01-06T07:46:41;5.07;;;1.83;;
80157;SDS011;74139;59.092;37.932;2024-01-06T07:49:10;4.13;;;1.88;;
80157;SDS011;74139;59.092;37.932;2024-01-06T07:51:36;4.18;;;1.60;;
80157;SDS011;74139;59.092;37.932;2024-01-06T07:54:02;3.95;;;2.10;;
80157;SDS011;74139;59.092;37.932;2024-01-06T07:56:28;4.53;;;2.05;;
80157;SDS011;74139;59.092;37.932;2024-01-06T07:58:54;4.70;;;1.90;;
80157;SDS011;74139;59.092;37.932;2024-01-06T08:01:20;4.78;;;1.98;;
80157;SDS011;74139;59.092;37.932;2024-01-06T08:03:46;3.80;;;2.00;;
80157;SDS011;74139;59.092;37.932;2024-01-06T08:06:13;5.00;;;2.20;;
80157;SDS011;74139;59.092;37.932;2024-01-06T08:08:39;4.40;;;2.25;;
80157;SDS011;74139;59.092;37.932;2024-01-06T08:11:05;4.40;;;2.13;;
80157;SDS011;74139;59.092;37.932;2024-01-06T08:13:31;3.88;;;1.85;;
80157;SDS011;74139;59.092;37.932;2024-01-06T08:15:57;4.63;;;1.77;;
80157;SDS011;74139;59.092;37.932;2024-01-06T08:18:23;4.32;;;1.73;;
80157;SDS011;74139;59.092;37.932;2024-01-06T08:20:49;5.88;;;2.10;;
80157;SDS011;74139;59.092;37.932;2024-01-06T08:23:27;4.30;;;1.92;;
80157;SDS011;74139;59.092;37.932;2024-01-06T08:25:53;4.90;;;2.13;;
80157;SDS011;74139;59.092;37.932;2024-01-06T08:28:19;4.10;;;2.05;;
80157;SDS011;74139;59.092;37.932;2024-01-06T08:30:47;2.97;;;1.70;;
80157;SDS011;74139;59.092;37.932;2024-01-06T08:33:12;4.68;;;1.90;;
80157;SDS011;74139;59.092;37.932;2024-01-06T08:35:38;6.20;;;2.22;;
80157;SDS011;74139;59.092;37.932;2024-01-06T08:38:06;4.68;;;2.35;;
80157;SDS011;74139;59.092;37.932;2024-01-06T08:40:33;4.15;;;1.90;;
80157;SDS011;74139;59.092;37.932;2024-01-06T08:42:59;3.83;;;1.73;;
80157;SDS011;74139;59.092;37.932;2024-01-06T08:45:24;5.53;;;2.13;;
80157;SDS011;74139;59.092;37.932;2024-01-06T08:47:50;4.47;;;1.90;;
80157;SDS011;74139;59.092;37.932;2024-01-06T08:50:16;3.67;;;1.77;;
80157;SDS011;74139;59.092;37.932;2024-01-06T08:52:42;4.60;;;1.95;;
80157;SDS011;74139;59.092;37.932;2024-01-06T08:55:08;5.63;;;2.42;;
80157;SDS011;74139;59.092;37.932;2024-01-06T08:57:34;5.63;;;2.15;;
80157;SDS011;74139;59.092;37.932;2024-01-06T09:00:00;4.45;;;2.00;;
80157;SDS011;74139;59.092;37.932;2024-01-06T09:02:26;3.85;;;1.90;;
80157;SDS011;74139;59.092;37.932;2024-01-06T09:04:52;5.20;;;2.33;;
80157;SDS011;74139;59.092;37.932;2024-01-06T09:07:18;4.18;;;1.90;;
80157;SDS011;74139;59.092;37.932;2024-01-06T09:09:44;4.75;;;1.88;;
80157;SDS011;74139;59.092;37.932;2024-01-06T09:12:10;4.32;;;1.70;;
80157;SDS011;74139;59.092;37.932;2024-01-06T09:14:36;4.50;;;1.90;;
80157;SDS011;74139;59.092;37.932;2024-01-06T09:17:01;4.38;;;1.90;;
80157;SDS011;74139;59.092;37.932;2024-01-06T09:19:27;4.47;;;1.90;;
80157;SDS011;74139;59.092;37.932;2024-01-06T09:21:54;4.32;;;2.20;;
80157;SDS011;74139;59.092;37.932;2024-01-06T09:24:20;4.78;;;1.77;;
80157;SDS011;74139;59.092;37.932;2024-01-06T09:26:46;3.67;;;1.90;;
80157;SDS011;74139;59.092;37.932;2024-01-06T09:29:12;4.18;;;2.00;;
80157;SDS011;74139;59.092;37.932;2024-01-06T09:31:38;4.43;;;1.85;;
80157;SDS011;74139;59.092;37.932;2024-01-06T09:34:04;3.10;;;1.70;;
80157;SDS011;74139;59.092;37.932;2024-01-06T09:36:31;5.80;;;1.98;;
80157;SDS011;74139;59.092;37.932;2024-01-06T09:38:57;3.92;;;1.70;;
80157;SDS011;74139;59.092;37.932;2024-01-06T09:41:23;3.25;;;1.52;;
80157;SDS011;74139;59.092;37.932;2024-01-06T09:43:50;4.38;;;2.17;;
80157;SDS011;74139;59.092;37.932;2024-01-06T09:46:24;4.07;;;1.70;;
80157;SDS011;74139;59.092;37.932;2024-01-06T09:48:52;4.93;;;2.10;;
80157;SDS011;74139;59.092;37.932;2024-01-06T09:51:19;5.32;;;2.05;;
80157;SDS011;74139;59.092;37.932;2024-01-06T09:53:58;4.07;;;1.90;;
80157;SDS011;74139;59.092;37.932;2024-01-06T09:56:25;4.07;;;2.03;;
80157;SDS011;74139;59.092;37.932;2024-01-06T09:58:51;5.63;;;2.10;;
80157;SDS011;74139;59.092;37.932;2024-01-06T10:01:17;5.05;;;2.25;;
80157;SDS011;74139;59.092;37.932;2024-01-06T10:03:44;4.22;;;1.83;;
80157;SDS011;74139;59.092;37.932;2024-01-06T10:06:11;3.65;;;1.85;;
80157;SDS011;74139;59.092;37.932;2024-01-06T10:08:38;4.25;;;2.08;;
80157;SDS011;74139;59.092;37.932;2024-01-06T10:11:06;4.47;;;1.95;;
80157;SDS011;74139;59.092;37.932;2024-01-06T10:13:33;3.47;;;1.65;;
80157;SDS011;74139;59.092;37.932;2024-01-06T10:15:59;4.47;;;2.05;;
80157;SDS011;74139;59.092;37.932;2024-01-06T10:18:28;3.67;;;1.83;;
80157;SDS011;74139;59.092;37.932;2024-01-06T10:20:55;4.47;;;1.73;;
80157;SDS011;74139;59.092;37.932;2024-01-06T10:23:22;4.93;;;1.80;;
80157;SDS011;74139;59.092;37.932;2024-01-06T10:25:52;3.72;;;1.98;;
80157;SDS011;74139;59.092;37.932;2024-01-06T10:28:20;4.90;;;2.00;;
80157;SDS011;74139;59.092;37.932;2024-01-06T10:30:46;4.05;;;1.80;;
80157;SDS011;74139;59.092;37.932;2024-01-06T10:33:12;5.43;;;2.22;;
80157;SDS011;74139;59.092;37.932;2024-01-06T10:35:39;3.97;;;1.90;;
80157;SDS011;74139;59.092;37.932;2024-01-06T10:38:06;4.03;;;1.63;;
80157;SDS011;74139;59.092;37.932;2024-01-06T10:40:32;4.75;;;1.92;;
80157;SDS011;74139;59.092;37.932;2024-01-06T10:42:58;4.85;;;1.80;;
80157;SDS011;74139;59.092;37.932;2024-01-06T10:47:51;5.00;;;1.95;;
80157;SDS011;74139;59.092;37.932;2024-01-06T10:50:17;5.88;;;2.00;;
80157;SDS011;74139;59.092;37.932;2024-01-06T10:52:43;5.13;;;2.00;;
80157;SDS011;74139;59.092;37.932;2024-01-06T10:55:10;4.68;;;2.13;;
80157;SDS011;74139;59.092;37.932;2024-01-06T10:57:37;4.07;;;1.92;;
80157;SDS011;74139;59.092;37.932;2024-01-06T11:00:03;4.72;;;2.10;;
80157;SDS011;74139;59.092;37.932;2024-01-06T11:02:31;5.03;;;2.15;;
80157;SDS011;74139;59.092;37.932;2024-01-06T11:04:57;4.75;;;2.00;;
80157;SDS011;74139;59.092;37.932;2024-01-06T11:07:23;4.57;;;2.03;;
80157;SDS011;74139;59.092;37.932;2024-01-06T11:09:57;4.60;;;1.77;;
80157;SDS011;74139;59.092;37.932;2024-01-06T11:12:26;3.90;;;2.03;;
80157;SDS011;74139;59.092;37.932;2024-01-06T11:14:52;4.45;;;1.83;;
80157;SDS011;74139;59.092;37.932;2024-01-06T11:20:05;4.85;;;1.92;;
80157;SDS011;74139;59.092;37.932;2024-01-06T11:22:32;5.63;;;1.95;;
80157;SDS011;74139;59.092;37.932;2024-01-06T11:25:05;5.10;;;1.80;;
80157;SDS011;74139;59.092;37.932;2024-01-06T11:27:31;4.20;;;1.73;;
80157;SDS011;74139;59.092;37.932;2024-01-06T11:29:58;4.78;;;1.83;;
80157;SDS011;74139;59.092;37.932;2024-01-06T11:32:29;5.50;;;1.90;;
80157;SDS011;74139;59.092;37.932;2024-01-06T11:35:05;5.47;;;1.90;;
80157;SDS011;74139;59.092;37.932;2024-01-06T11:40:10;4.75;;;2.00;;
80157;SDS011;74139;59.092;37.932;2024-01-06T11:42:41;4.70;;;2.00;;
80157;SDS011;74139;59.092;37.932;2024-01-06T11:45:08;5.13;;;2.20;;
80157;SDS011;74139;59.092;37.932;2024-01-06T11:50:00;3.78;;;1.80;;
80157;SDS011;74139;59.092;37.932;2024-01-06T11:52:30;5.20;;;2.25;;
80157;SDS011;74139;59.092;37.932;2024-01-06T11:57:22;3.83;;;1.70;;
80157;SDS011;74139;59.092;37.932;2024-01-06T11:59:48;4.38;;;1.88;;
80157;SDS011;74139;59.092;37.932;2024-01-06T12:02:17;5.35;;;2.30;;
80157;SDS011;74139;59.092;37.932;2024-01-06T12:04:44;4.78;;;2.03;;
80157;SDS011;74139;59.092;37.932;2024-01-06T12:07:13;4.05;;;1.92;;
80157;SDS011;74139;59.092;37.932;2024-01-06T12:09:40;3.67;;;1.63;;
80157;SDS011;74139;59.092;37.932;2024-01-06T12:12:06;4.30;;;1.70;;
80157;SDS011;74139;59.092;37.932;2024-01-06T12:14:33;4.22;;;1.80;;
80157;SDS011;74139;59.092;37.932;2024-01-06T12:16:59;6.50;;;1.98;;
80157;SDS011;74139;59.092;37.932;2024-01-06T12:19:29;4.28;;;1.85;;
80157;SDS011;74139;59.092;37.932;2024-01-06T12:21:56;4.38;;;1.90;;
80157;SDS011;74139;59.092;37.932;2024-01-06T12:24:22;4.45;;;1.63;;
80157;SDS011;74139;59.092;37.932;2024-01-06T12:26:48;5.18;;;2.00;;
80157;SDS011;74139;59.092;37.932;2024-01-06T12:29:16;3.25;;;1.70;;
80157;SDS011;74139;59.092;37.932;2024-01-06T12:31:43;5.47;;;2.00;;
80157;SDS011;74139;59.092;37.932;2024-01-06T12:34:09;4.03;;;1.67;;
80157;SDS011;74139;59.092;37.932;2024-01-06T12:36:37;3.50;;;1.83;;
80157;SDS011;74139;59.092;37.932;2024-01-06T12:39:03;4.65;;;1.73;;
80157;SDS011;74139;59.092;37.932;2024-01-06T12:41:29;3.20;;;1.65;;
80157;SDS011;74139;59.092;37.932;2024-01-06T12:43:55;4.85;;;1.88;;
80157;SDS011;74139;59.092;37.932;2024-01-06T12:46:21;3.58;;;1.77;;
80157;SDS011;74139;59.092;37.932;2024-01-06T12:48:47;3.13;;;1.40;;
80157;SDS011;74139;59.092;37.932;2024-01-06T12:51:13;7.75;;;1.80;;
80157;SDS011;74139;59.092;37.932;2024-01-06T12:53:39;5.30;;;1.73;;
80157;SDS011;74139;59.092;37.932;2024-01-06T12:56:05;4.20;;;1.90;;
80157;SDS011;74139;59.092;37.932;2024-01-06T12:58:33;3.90;;;2.42;;
80157;SDS011;74139;59.092;37.932;2024-01-06T13:03:25;3.33;;;1.50;;
80157;SDS011;74139;59.092;37.932;2024-01-06T13:05:51;6.30;;;2.20;;
80157;SDS011;74139;59.092;37.932;2024-01-06T13:08:17;5.00;;;2.10;;
80157;SDS011;74139;59.092;37.932;2024-01-06T13:10:43;4.88;;;2.25;;
80157;SDS011;74139;59.092;37.932;2024-01-06T13:13:09;6.78;;;2.67;;
80157;SDS011;74139;59.092;37.932;2024-01-06T13:15:35;5.50;;;2.72;;
80157;SDS011;74139;59.092;37.932;2024-01-06T13:18:01;4.80;;;1.95;;
80157;SDS011;74139;59.092;37.932;2024-01-06T13:20:27;6.60;;;1.75;;
80157;SDS011;74139;59.092;37.932;2024-01-06T13:22:53;6.25;;;2.25;;
80157;SDS011;74139;59.092;37.932;2024-01-06T13:25:19;4.68;;;1.48;;
80157;SDS011;74139;59.092;37.932;2024-01-06T13:27:45;4.30;;;1.73;;
80157;SDS011;74139;59.092;37.932;2024-01-06T13:30:11;3.25;;;1.80;;
80157;SDS011;74139;59.092;37.932;2024-01-06T13:32:38;3.97;;;1.80;;
80157;SDS011;74139;59.092;37.932;2024-01-06T13:35:04;5.97;;;1.55;;
80157;SDS011;74139;59.092;37.932;2024-01-06T13:39:57;2.75;;;1.30;;
80157;SDS011;74139;59.092;37.932;2024-01-06T13:42:23;3.88;;;1.45;;
80157;SDS011;74139;59.092;37.932;2024-01-06T13:44:49;4.20;;;1.42;;
80157;SDS011;74139;59.092;37.932;2024-01-06T13:47:16;3.65;;;1.60;;
80157;SDS011;74139;59.092;37.932;2024-01-06T13:49:42;3.20;;;1.40;;
80157;SDS011;74139;59.092;37.932;2024-01-06T13:52:08;5.13;;;1.33;;
80157;SDS011;74139;59.092;37.932;2024-01-06T13:54:34;3.20;;;1.83;;
80157;SDS011;74139;59.092;37.932;2024-01-06T13:57:00;3.42;;;1.65;;
80157;SDS011;74139;59.092;37.932;2024-01-06T13:59:27;1.73;;;0.90;;
80157;SDS011;74139;59.092;37.932;2024-01-06T14:01:53;3.25;;;1.50;;
80157;SDS011;74139;59.092;37.932;2024-01-06T14:04:19;3.63;;;1.10;;
80157;SDS011;74139;59.092;37.932;2024-01-06T14:06:45;2.72;;;1.42;;
80157;SDS011;74139;59.092;37.932;2024-01-06T14:09:13;4.00;;;1.50;;
80157;SDS011;74139;59.092;37.932;2024-01-06T14:11:39;2.50;;;1.33;;
80157;SDS011;74139;59.092;37.932;2024-01-06T14:14:05;2.42;;;1.35;;
80157;SDS011;74139;59.092;37.932;2024-01-06T14:16:31;2.97;;;1.35;;
80157;SDS011;74139;59.092;37.932;2024-01-06T14:18:57;2.47;;;1.10;;
80157;SDS011;74139;59.092;37.932;2024-01-06T14:21:24;4.55;;;2.10;;
80157;SDS011;74139;59.092;37.932;2024-01-06T14:23:52;2.83;;;1.20;;
80157;SDS011;74139;59.092;37.932;2024-01-06T14:26:18;2.70;;;1.50;;
80157;SDS011;74139;59.092;37.932;2024-01-06T14:28:46;2.72;;;1.08;;
80157;SDS011;74139;59.092;37.932;2024-01-06T14:31:12;2.33;;;1.30;;
80157;SDS011;74139;59.092;37.932;2024-01-06T14:33:38;3.47;;;1.23;;
80157;SDS011;74139;59.092;37.932;2024-01-06T14:36:04;3.25;;;1.33;;
80157;SDS011;74139;59.092;37.932;2024-01-06T14:38:30;5.25;;;1.80;;
80157;SDS011;74139;59.092;37.932;2024-01-06T14:40:57;1.85;;;1.20;;
80157;SDS011;74139;59.092;37.932;2024-01-06T14:43:23;1.83;;;1.20;;
80157;SDS011;74139;59.092;37.932;2024-01-06T14:45:49;2.95;;;1.15;;
80157;SDS011;74139;59.092;37.932;2024-01-06T14:48:15;3.40;;;1.00;;
80157;SDS011;74139;59.092;37.932;2024-01-06T14:50:41;1.90;;;0.90;;